sensor_id;sensor_type;location;lat;lon;timestamp;pressure;altitude;pressure_sealevel;temperature;humidity
17054;BME280;8643;48.824;11.422;2023-12-20T00:01:27;96915.50;;;2.13;100.00
17054;BME280;8643;48.824;11.422;2023-12-20T00:03:56;96919.00;;;2.19;100.00
17054;BME280;8643;48.824;11.422;2023-12-20T00:06:24;96906.00;;;2.26;100.00
17054;BME280;8643;48.824;11.422;2023-12-20T00:08:53;96906.28;;;2.25;100.00
17054;BME280;8643;48.824;11.422;2023-12-20T00:11:21;96899.50;;;2.27;100.00
17054;BME280;8643;48.824;11.422;2023-12-20T00:13:52;96897.34;;;2.29;100.00
17054;BME280;8643;48.824;11.422;2023-12-20T00:16:20;96901.94;;;2.29;100.00
17054;BME280;8643;48.824;11.422;2023-12-20T00:18:49;96903.00;;;2.28;100.00
17054;BME280;8643;48.824;11.422;2023-12-20T00:21:17;96901.13;;;2.28;100.00
17054;BME280;8643;48.824;11.422;2023-12-20T00:23:46;96897.09;;;2.26;100.00
17054;BME280;8643;48.824;11.422;2023-12-20T00:26:14;96879.53;;;2.23;100.00
17054;BME280;8643;48.824;11.422;2023-12-20T00:28:43;96872.25;;;2.24;100.00
17054;BME280;8643;48.824;11.422;2023-12-20T00:31:13;96874.16;;;2.18;100.00
17054;BME280;8643;48.824;11.422;2023-12-20T00:33:41;96875.22;;;2.22;100.00
17054;BME280;8643;48.824;11.422;2023-12-20T00:36:11;96883.63;;;2.20;100.00
17054;BME280;8643;48.824;11.422;2023-12-20T00:38:40;96885.78;;;2.18;100.00
17054;BME280;8643;48.824;11.422;2023-12-20T00:41:08;96882.81;;;2.15;100.00
17054;BME280;8643;48.824;11.422;2023-12-20T00:43:37;96880.16;;;2.10;100.00
17054;BME280;8643;48.824;11.422;2023-12-20T00:46:06;96885.03;;;2.08;100.00
17054;BME280;8643;48.824;11.422;2023-12-20T00:48:35;96879.66;;;2.03;100.00
17054;BME280;8643;48.824;11.422;2023-12-20T00:51:04;96887.78;;;1.97;100.00
17054;BME280;8643;48.824;11.422;2023-12-20T00:53:33;96873.22;;;1.93;100.00
17054;BME280;8643;48.824;11.422;2023-12-20T00:56:01;96881.31;;;1.93;100.00
17054;BME280;8643;48.824;11.422;2023-12-20T00:58:29;96877.00;;;1.92;100.00
17054;BME280;8643;48.824;11.422;2023-12-20T01:00:58;96866.19;;;1.92;100.00
17054;BME280;8643;48.824;11.422;2023-12-20T01:03:27;96866.22;;;1.87;100.00
17054;BME280;8643;48.824;11.422;2023-12-20T01:05:57;96864.34;;;1.82;100.00
17054;BME280;8643;48.824;11.422;2023-12-20T01:08:25;96859.78;;;1.78;100.00
17054;BME280;8643;48.824;11.422;2023-12-20T01:10:54;96856.53;;;1.76;100.00
17054;BME280;8643;48.824;11.422;2023-12-20T01:13:23;96866.28;;;1.72;100.00
17054;BME280;8643;48.824;11.422;2023-12-20T01:15:51;96871.44;;;1.68;100.00
17054;BME280;8643;48.824;11.422;2023-12-20T01:18:20;96880.34;;;1.69;100.00
17054;BME280;8643;48.824;11.422;2023-12-20T01:20:48;96887.09;;;1.66;100.00
17054;BME280;8643;48.824;11.422;2023-12-20T01:23:18;96886.00;;;1.67;100.00
17054;BME280;8643;48.824;11.422;2023-12-20T01:25:46;96885.22;;;1.67;100.00
17054;BME280;8643;48.824;11.422;2023-12-20T01:28:15;96886.28;;;1.65;100.00
17054;BME280;8643;48.824;11.422;2023-12-20T01:30:43;96882.78;;;1.65;100.00
17054;BME280;8643;48.824;11.422;2023-12-20T01:33:12;96880.63;;;1.62;100.00
17054;BME280;8643;48.824;11.422;2023-12-20T01:35:40;96872.81;;;1.60;100.00
17054;BME280;8643;48.824;11.422;2023-12-20T01:38:09;96868.50;;;1.59;100.00
17054;BME280;8643;48.824;11.422;2023-12-20T01:40:39;96859.31;;;1.60;100.00
17054;BME280;8643;48.824;11.422;2023-12-20T01:43:09;96861.47;;;1.63;100.00
17054;BME280;8643;48.824;11.422;2023-12-20T01:45:39;96850.13;;;1.67;100.00
17054;BME280;8643;48.824;11.422;2023-12-20T01:48:10;96846.31;;;1.68;100.00
17054;BME280;8643;48.824;11.422;2023-12-20T01:50:40;96851.72;;;1.68;100.00
17054;BME280;8643;48.824;11.422;2023-12-20T01:53:12;96845.25;;;1.69;100.00
17054;BME280;8643;48.824;11.422;2023-12-20T01:55:44;96841.47;;;1.70;100.00
17054;BME280;8643;48.824;11.422;2023-12-20T01:58:14;96839.56;;;1.70;100.00
17054;BME280;8643;48.824;11.422;2023-12-20T02:00:43;96832.81;;;1.68;100.00
17054;BME280;8643;48.824;11.422;2023-12-20T02:03:12;96829.84;;;1.69;100.00
17054;BME280;8643;48.824;11.422;2023-12-20T02:05:41;96827.69;;;1.71;100.00
17054;BME280;8643;48.824;11.422;2023-12-20T02:08:09;96827.97;;;1.70;100.00
17054;BME280;8643;48.824;11.422;2023-12-20T02:10:38;96830.41;;;1.71;100.00
17054;BME280;8643;48.824;11.422;2023-12-20T02:13:08;96829.81;;;1.74;100.00
17054;BME280;8643;48.824;11.422;2023-12-20T02:15:37;96830.09;;;1.73;100.00
17054;BME280;8643;48.824;11.422;2023-12-20T02:18:06;96824.97;;;1.76;100.00
17054;BME280;8643;48.824;11.422;2023-12-20T02:20:35;96832.78;;;1.78;100.00
17054;BME280;8643;48.824;11.422;2023-12-20T02:23:05;96826.84;;;1.76;100.00
17054;BME280;8643;48.824;11.422;2023-12-20T02:25:33;96821.72;;;1.74;100.00
17054;BME280;8643;48.824;11.422;2023-12-20T02:28:03;96822.31;;;1.71;100.00
17054;BME280;8643;48.824;11.422;2023-12-20T02:30:32;96822.00;;;1.78;100.00
17054;BME280;8643;48.824;11.422;2023-12-20T02:33:03;96814.94;;;1.82;100.00
17054;BME280;8643;48.824;11.422;2023-12-20T02:35:36;96821.69;;;1.85;100.00
17054;BME280;8643;48.824;11.422;2023-12-20T02:38:06;96814.63;;;1.89;100.00
17054;BME280;8643;48.824;11.422;2023-12-20T02:40:34;96811.66;;;1.90;100.00
17054;BME280;8643;48.824;11.422;2023-12-20T02:43:03;96810.81;;;1.95;100.00
17054;BME280;8643;48.824;11.422;2023-12-20T02:45:31;96808.91;;;1.95;100.00
17054;BME280;8643;48.824;11.422;2023-12-20T02:48:00;96814.03;;;1.97;100.00
17054;BME280;8643;48.824;11.422;2023-12-20T02:50:28;96808.41;;;1.93;100.00
17054;BME280;8643;48.824;11.422;2023-12-20T02:52:57;96807.31;;;1.94;100.00
17054;BME280;8643;48.824;11.422;2023-12-20T02:55:27;96807.84;;;1.96;100.00
17054;BME280;8643;48.824;11.422;2023-12-20T02:57:55;96804.59;;;1.99;100.00
17054;BME280;8643;48.824;11.422;2023-12-20T03:00:24;96806.19;;;2.06;100.00
17054;BME280;8643;48.824;11.422;2023-12-20T03:02:52;96799.06;;;2.15;100.00
17054;BME280;8643;48.824;11.422;2023-12-20T03:05:21;96790.97;;;2.15;100.00
17054;BME280;8643;48.824;11.422;2023-12-20T03:07:49;96786.50;;;2.34;100.00
17054;BME280;8643;48.824;11.422;2023-12-20T03:10:19;96779.41;;;2.44;100.00
17054;BME280;8643;48.824;11.422;2023-12-20T03:12:54;96798.28;;;2.49;100.00
17054;BME280;8643;48.824;11.422;2023-12-20T03:15:23;96793.16;;;2.47;100.00
17054;BME280;8643;48.824;11.422;2023-12-20T03:17:51;96794.84;;;2.43;100.00
17054;BME280;8643;48.824;11.422;2023-12-20T03:20:20;96791.34;;;2.37;100.00
17054;BME280;8643;48.824;11.422;2023-12-20T03:22:49;96791.91;;;2.34;100.00
17054;BME280;8643;48.824;11.422;2023-12-20T03:25:17;96802.75;;;2.29;100.00
17054;BME280;8643;48.824;11.422;2023-12-20T03:27:46;96800.56;;;2.31;100.00
17054;BME280;8643;48.824;11.422;2023-12-20T03:30:16;96816.78;;;2.31;100.00
17054;BME280;8643;48.824;11.422;2023-12-20T03:32:45;96803.59;;;2.25;100.00
17054;BME280;8643;48.824;11.422;2023-12-20T03:35:14;96807.69;;;2.22;100.00
17054;BME280;8643;48.824;11.422;2023-12-20T03:37:42;96815.84;;;2.17;100.00
17054;BME280;8643;48.824;11.422;2023-12-20T03:40:11;96815.84;;;2.17;100.00
17054;BME280;8643;48.824;11.422;2023-12-20T03:42:40;96817.47;;;2.13;100.00
17054;BME280;8643;48.824;11.422;2023-12-20T03:45:09;96817.22;;;2.09;100.00
17054;BME280;8643;48.824;11.422;2023-12-20T03:47:39;96822.38;;;2.06;100.00
17054;BME280;8643;48.824;11.422;2023-12-20T03:50:08;96829.13;;;2.03;100.00
17054;BME280;8643;48.824;11.422;2023-12-20T03:52:36;96827.00;;;2.00;100.00
17054;BME280;8643;48.824;11.422;2023-12-20T03:55:06;96823.50;;;1.99;100.00
17054;BME280;8643;48.824;11.422;2023-12-20T03:57:34;96833.22;;;1.95;100.00
17054;BME280;8643;48.824;11.422;2023-12-20T04:00:04;96831.63;;;1.94;100.00
17054;BME280;8643;48.824;11.422;2023-12-20T04:02:40;96823.53;;;1.94;100.00
17054;BME280;8643;48.824;11.422;2023-12-20T04:05:10;96821.38;;;1.91;100.00
17054;BME280;8643;48.824;11.422;2023-12-20T04:07:39;96836.50;;;1.87;100.00
17054;BME280;8643;48.824;11.422;2023-12-20T04:10:08;96830.84;;;1.89;100.00
17054;BME280;8643;48.824;11.422;2023-12-20T04:12:37;96834.09;;;1.91;100.00
17054;BME280;8643;48.824;11.422;2023-12-20T04:15:06;96837.59;;;1.91;100.00
17054;BME280;8643;48.824;11.422;2023-12-20T04:17:37;96839.50;;;1.91;100.00
17054;BME280;8643;48.824;11.422;2023-12-20T04:20:08;96832.97;;;1.92;100.00
17054;BME280;8643;48.824;11.422;2023-12-20T04:22:37;96840.03;;;1.88;100.00
17054;BME280;8643;48.824;11.422;2023-12-20T04:25:06;96837.59;;;1.91;100.00
17054;BME280;8643;48.824;11.422;2023-12-20T04:27:34;96830.56;;;1.90;100.00
17054;BME280;8643;48.824;11.422;2023-12-20T04:30:04;96838.66;;;1.90;100.00
17054;BME280;8643;48.824;11.422;2023-12-20T04:32:32;96825.72;;;1.87;100.00
17054;BME280;8643;48.824;11.422;2023-12-20T04:35:01;96842.75;;;1.88;100.00
17054;BME280;8643;48.824;11.422;2023-12-20T04:37:31;96834.38;;;1.84;100.00
17054;BME280;8643;48.824;11.422;2023-12-20T04:40:00;96836.50;;;1.87;100.00
17054;BME280;8643;48.824;11.422;2023-12-20T04:42:29;96833.56;;;1.83;100.00
17054;BME280;8643;48.824;11.422;2023-12-20T04:44:57;96836.50;;;1.87;100.00
17054;BME280;8643;48.824;11.422;2023-12-20T04:47:26;96836.50;;;1.87;100.00
17054;BME280;8643;48.824;11.422;2023-12-20T04:49:54;96833.81;;;1.87;100.00
17054;BME280;8643;48.824;11.422;2023-12-20T04:52:23;96845.72;;;1.86;100.00
17054;BME280;8643;48.824;11.422;2023-12-20T04:54:53;96847.31;;;1.87;100.00
17054;BME280;8643;48.824;11.422;2023-12-20T04:57:22;96841.13;;;1.87;100.00
17054;BME280;8643;48.824;11.422;2023-12-20T04:59:50;96852.72;;;1.87;100.00
17054;BME280;8643;48.824;11.422;2023-12-20T05:02:19;96851.91;;;1.87;100.00
17054;BME280;8643;48.824;11.422;2023-12-20T05:04:47;96845.97;;;1.90;100.00
17054;BME280;8643;48.824;11.422;2023-12-20T05:07:17;96850.56;;;1.89;100.00
17054;BME280;8643;48.824;11.422;2023-12-20T05:09:47;96845.44;;;1.88;100.00
17054;BME280;8643;48.824;11.422;2023-12-20T05:12:17;96854.34;;;1.88;100.00
17054;BME280;8643;48.824;11.422;2023-12-20T05:14:46;96853.00;;;1.91;100.00
17054;BME280;8643;48.824;11.422;2023-12-20T05:17:14;96860.53;;;1.89;100.00
17054;BME280;8643;48.824;11.422;2023-12-20T05:19:43;96855.38;;;1.92;100.00
17054;BME280;8643;48.824;11.422;2023-12-20T05:22:11;96864.59;;;1.91;100.00
17054;BME280;8643;48.824;11.422;2023-12-20T05:24:40;96863.22;;;1.94;100.00
17054;BME280;8643;48.824;11.422;2023-12-20T05:27:09;96864.84;;;1.95;100.00
17054;BME280;8643;48.824;11.422;2023-12-20T05:29:38;96867.53;;;1.95;100.00
17054;BME280;8643;48.824;11.422;2023-12-20T05:32:07;96870.50;;;1.93;100.00
17054;BME280;8643;48.824;11.422;2023-12-20T05:34:35;96867.25;;;1.96;100.00
17054;BME280;8643;48.824;11.422;2023-12-20T05:37:04;96874.00;;;1.94;100.00
17054;BME280;8643;48.824;11.422;2023-12-20T05:39:32;96873.22;;;1.93;100.00
17054;BME280;8643;48.824;11.422;2023-12-20T05:42:01;96871.03;;;1.95;100.00
17054;BME280;8643;48.824;11.422;2023-12-20T05:44:29;96877.25;;;1.96;100.00
17054;BME280;8643;48.824;11.422;2023-12-20T05:46:59;96887.25;;;1.95;100.00
17054;BME280;8643;48.824;11.422;2023-12-20T05:49:28;96898.31;;;1.99;100.00
17054;BME280;8643;48.824;11.422;2023-12-20T05:51:57;96903.72;;;1.99;100.00
17054;BME280;8643;48.824;11.422;2023-12-20T05:54:25;96914.25;;;2.00;100.00
17054;BME280;8643;48.824;11.422;2023-12-20T05:56:54;96915.31;;;1.99;100.00
17054;BME280;8643;48.824;11.422;2023-12-20T05:59:22;96908.25;;;2.04;100.00
17054;BME280;8643;48.824;11.422;2023-12-20T06:01:51;96917.19;;;2.04;100.00
17054;BME280;8643;48.824;11.422;2023-12-20T06:04:21;96916.91;;;2.06;100.00
17054;BME280;8643;48.824;11.422;2023-12-20T06:06:50;96924.75;;;2.07;100.00
17054;BME280;8643;48.824;11.422;2023-12-20T06:09:18;96924.19;;;2.05;100.00
17054;BME280;8643;48.824;11.422;2023-12-20T06:11:47;96920.69;;;2.05;100.00
17054;BME280;8643;48.824;11.422;2023-12-20T06:14:15;96913.13;;;2.07;100.00
17054;BME280;8643;48.824;11.422;2023-12-20T06:16:45;96904.22;;;2.06;100.00
17054;BME280;8643;48.824;11.422;2023-12-20T06:19:13;96921.78;;;2.04;100.00
17054;BME280;8643;48.824;11.422;2023-12-20T06:21:44;96923.41;;;1.99;100.00
17054;BME280;8643;48.824;11.422;2023-12-20T06:24:12;96924.22;;;2.00;100.00
17054;BME280;8643;48.824;11.422;2023-12-20T06:26:41;96935.56;;;2.07;100.00
17054;BME280;8643;48.824;11.422;2023-12-20T06:29:09;96945.53;;;2.07;100.00
17054;BME280;8643;48.824;11.422;2023-12-20T06:31:38;96939.06;;;2.08;100.00
17054;BME280;8643;48.824;11.422;2023-12-20T06:34:06;96935.28;;;2.09;100.00
17054;BME280;8643;48.824;11.422;2023-12-20T06:36:36;96933.91;;;2.11;100.00
17054;BME280;8643;48.824;11.422;2023-12-20T06:39:05;96940.09;;;2.12;100.00
17054;BME280;8643;48.824;11.422;2023-12-20T06:41:36;96944.69;;;2.11;100.00
17054;BME280;8643;48.824;11.422;2023-12-20T06:44:05;96949.00;;;2.17;100.00
17054;BME280;8643;48.824;11.422;2023-12-20T06:46:33;96953.84;;;2.20;100.00
17054;BME280;8643;48.824;11.422;2023-12-20T06:49:02;96953.06;;;2.20;100.00
17054;BME280;8643;48.824;11.422;2023-12-20T06:51:30;96951.97;;;2.16;100.00
17054;BME280;8643;48.824;11.422;2023-12-20T06:53:59;96957.63;;;2.19;100.00
17054;BME280;8643;48.824;11.422;2023-12-20T06:56:31;96969.81;;;2.17;100.00
17054;BME280;8643;48.824;11.422;2023-12-20T06:59:00;96967.41;;;2.15;100.00
17054;BME280;8643;48.824;11.422;2023-12-20T07:01:28;96964.94;;;2.19;100.00
17054;BME280;8643;48.824;11.422;2023-12-20T07:03:57;96969.00;;;2.16;100.00
17054;BME280;8643;48.824;11.422;2023-12-20T07:06:26;96971.97;;;2.20;100.00
17054;BME280;8643;48.824;11.422;2023-12-20T07:08:55;96975.47;;;2.20;100.00
17054;BME280;8643;48.824;11.422;2023-12-20T07:11:23;96974.91;;;2.24;100.00
17054;BME280;8643;48.824;11.422;2023-12-20T07:13:54;96980.88;;;2.20;100.00
17054;BME280;8643;48.824;11.422;2023-12-20T07:16:23;96985.19;;;2.27;100.00
17054;BME280;8643;48.824;11.422;2023-12-20T07:18:55;96988.16;;;2.25;100.00
17054;BME280;8643;48.824;11.422;2023-12-20T07:21:25;96986.78;;;2.28;100.00
17054;BME280;8643;48.824;11.422;2023-12-20T07:23:54;96992.19;;;2.28;100.00
17054;BME280;8643;48.824;11.422;2023-12-20T07:26:23;96998.69;;;2.27;100.00
17054;BME280;8643;48.824;11.422;2023-12-20T07:28:55;96996.78;;;2.27;100.00
17054;BME280;8643;48.824;11.422;2023-12-20T07:31:26;97001.63;;;2.30;100.00
17054;BME280;8643;48.824;11.422;2023-12-20T07:33:55;97005.94;;;2.31;100.00
17054;BME280;8643;48.824;11.422;2023-12-20T07:36:23;97014.63;;;2.28;100.00
17054;BME280;8643;48.824;11.422;2023-12-20T07:38:52;97016.50;;;2.28;100.00
17054;BME280;8643;48.824;11.422;2023-12-20T07:41:20;97021.38;;;2.26;100.00
17054;BME280;8643;48.824;11.422;2023-12-20T07:43:49;97031.88;;;2.32;100.00
17054;BME280;8643;48.824;11.422;2023-12-20T07:46:21;97033.78;;;2.32;100.00
17054;BME280;8643;48.824;11.422;2023-12-20T07:48:51;97033.25;;;2.30;100.00
17054;BME280;8643;48.824;11.422;2023-12-20T07:51:19;97034.63;;;2.27;100.00
17054;BME280;8643;48.824;11.422;2023-12-20T07:53:48;97032.72;;;2.28;100.00
17054;BME280;8643;48.824;11.422;2023-12-20T07:56:18;97038.94;;;2.28;100.00
17054;BME280;8643;48.824;11.422;2023-12-20T07:58:46;97030.00;;;2.28;100.00
17054;BME280;8643;48.824;11.422;2023-12-20T08:01:22;97029.22;;;2.27;100.00
17054;BME280;8643;48.824;11.422;2023-12-20T08:03:51;97034.34;;;2.29;100.00
17054;BME280;8643;48.824;11.422;2023-12-20T08:06:21;97041.91;;;2.27;100.00
17054;BME280;8643;48.824;11.422;2023-12-20T08:08:49;97031.09;;;2.32;100.00
17054;BME280;8643;48.824;11.422;2023-12-20T08:11:28;97038.94;;;2.33;100.00
17054;BME280;8643;48.824;11.422;2023-12-20T08:13:57;97043.50;;;2.38;100.00
17054;BME280;8643;48.824;11.422;2023-12-20T08:16:27;97048.06;;;2.43;100.00
17054;BME280;8643;48.824;11.422;2023-12-20T08:18:56;97047.53;;;2.41;100.00
17054;BME280;8643;48.824;11.422;2023-12-20T08:21:27;97052.13;;;2.40;100.00
17054;BME280;8643;48.824;11.422;2023-12-20T08:23:55;97043.75;;;2.42;100.00
17054;BME280;8643;48.824;11.422;2023-12-20T08:26:24;97049.16;;;2.42;100.00
17054;BME280;8643;48.824;11.422;2023-12-20T08:28:52;97051.88;;;2.42;100.00
17054;BME280;8643;48.824;11.422;2023-12-20T08:31:22;97052.66;;;2.42;100.00
17054;BME280;8643;48.824;11.422;2023-12-20T08:33:52;97056.72;;;2.45;100.00
17054;BME280;8643;48.824;11.422;2023-12-20T08:36:21;97052.09;;;2.50;100.00
17054;BME280;8643;48.824;11.422;2023-12-20T08:38:51;97054.00;;;2.50;100.00
17054;BME280;8643;48.824;11.422;2023-12-20T08:41:19;97053.47;;;2.48;100.00
17054;BME280;8643;48.824;11.422;2023-12-20T08:43:48;97047.75;;;2.49;100.00
17054;BME280;8643;48.824;11.422;2023-12-20T08:46:18;97043.19;;;2.50;100.00
17054;BME280;8643;48.824;11.422;2023-12-20T08:48:46;97036.94;;;2.54;100.00
17054;BME280;8643;48.824;11.422;2023-12-20T08:51:17;97037.72;;;2.60;100.00
17054;BME280;8643;48.824;11.422;2023-12-20T08:53:46;97035.53;;;2.62;100.00
17054;BME280;8643;48.824;11.422;2023-12-20T08:56:15;97039.31;;;2.66;100.00
17054;BME280;8643;48.824;11.422;2023-12-20T08:58:47;97038.50;;;2.71;100.00
17054;BME280;8643;48.824;11.422;2023-12-20T09:01:15;97036.34;;;2.68;100.00
17054;BME280;8643;48.824;11.422;2023-12-20T09:03:44;97034.94;;;2.75;100.00
17054;BME280;8643;48.824;11.422;2023-12-20T09:06:13;97039.22;;;2.82;100.00
17054;BME280;8643;48.824;11.422;2023-12-20T09:08:43;97035.16;;;2.84;100.00
17054;BME280;8643;48.824;11.422;2023-12-20T09:11:11;97033.53;;;2.83;100.00
17054;BME280;8643;48.824;11.422;2023-12-20T09:13:40;97033.22;;;2.90;100.00
17054;BME280;8643;48.824;11.422;2023-12-20T09:16:09;97015.91;;;2.91;100.00
17054;BME280;8643;48.824;11.422;2023-12-20T09:18:37;97018.63;;;2.91;100.00
17054;BME280;8643;48.824;11.422;2023-12-20T09:21:06;97019.97;;;2.88;100.00
17054;BME280;8643;48.824;11.422;2023-12-20T09:23:34;97018.81;;;3.00;100.00
17054;BME280;8643;48.824;11.422;2023-12-20T09:26:05;97023.72;;;2.98;100.00
17054;BME280;8643;48.824;11.422;2023-12-20T09:28:34;97024.00;;;2.96;100.00
17054;BME280;8643;48.824;11.422;2023-12-20T09:31:05;97032.13;;;2.96;100.00
17054;BME280;8643;48.824;11.422;2023-12-20T09:33:34;97022.09;;;3.02;100.00
17054;BME280;8643;48.824;11.422;2023-12-20T09:36:03;97031.53;;;3.04;100.00
17054;BME280;8643;48.824;11.422;2023-12-20T09:38:32;97026.94;;;3.05;100.00
17054;BME280;8643;48.824;11.422;2023-12-20T09:41:02;97035.84;;;3.05;100.00
17054;BME280;8643;48.824;11.422;2023-12-20T09:43:37;97029.09;;;3.03;100.00
17054;BME280;8643;48.824;11.422;2023-12-20T09:46:07;97029.31;;;3.11;100.00
17054;BME280;8643;48.824;11.422;2023-12-20T09:48:36;97030.44;;;3.05;100.00
17054;BME280;8643;48.824;11.422;2023-12-20T09:51:05;97022.03;;;3.07;100.00
17054;BME280;8643;48.824;11.422;2023-12-20T09:53:36;97018.75;;;3.15;100.00
17054;BME280;8643;48.824;11.422;2023-12-20T09:56:07;97025.47;;;3.18;100.00
17054;BME280;8643;48.824;11.422;2023-12-20T09:58:38;97029.00;;;3.18;100.00
17054;BME280;8643;48.824;11.422;2023-12-20T10:01:08;97027.56;;;3.26;100.00
17054;BME280;8643;48.824;11.422;2023-12-20T10:03:40;97022.75;;;3.23;100.00
17054;BME280;8643;48.824;11.422;2023-12-20T10:06:10;97031.88;;;3.32;100.00
17054;BME280;8643;48.824;11.422;2023-12-20T10:08:39;97022.16;;;3.31;100.00
17054;BME280;8643;48.824;11.422;2023-12-20T10:11:07;97022.72;;;3.28;100.00
17054;BME280;8643;48.824;11.422;2023-12-20T10:13:41;97032.69;;;3.33;100.00
17054;BME280;8643;48.824;11.422;2023-12-20T10:16:09;97024.16;;;3.49;100.00
17054;BME280;8643;48.824;11.422;2023-12-20T10:18:38;97024.72;;;3.46;100.00
17054;BME280;8643;48.824;11.422;2023-12-20T10:21:07;97027.72;;;3.45;100.00
17054;BME280;8643;48.824;11.422;2023-12-20T10:23:37;97026.34;;;3.47;100.00
17054;BME280;8643;48.824;11.422;2023-12-20T10:26:08;97019.06;;;3.43;100.00
17054;BME280;8643;48.824;11.422;2023-12-20T10:28:37;97017.13;;;3.48;100.00
17054;BME280;8643;48.824;11.422;2023-12-20T10:31:06;97013.03;;;3.51;100.00
17054;BME280;8643;48.824;11.422;2023-12-20T10:33:35;97021.00;;;3.72;100.00
17054;BME280;8643;48.824;11.422;2023-12-20T10:36:06;97022.47;;;3.83;100.00
17054;BME280;8643;48.824;11.422;2023-12-20T10:38:37;97020.66;;;3.78;100.00
17054;BME280;8643;48.824;11.422;2023-12-20T10:41:09;97017.47;;;3.71;100.00
17054;BME280;8643;48.824;11.422;2023-12-20T10:43:38;97015.59;;;3.66;100.00
17054;BME280;8643;48.824;11.422;2023-12-20T10:46:09;97013.72;;;3.67;100.00
17054;BME280;8643;48.824;11.422;2023-12-20T10:48:40;97013.50;;;3.58;100.00
17054;BME280;8643;48.824;11.422;2023-12-20T10:51:10;97017.69;;;3.45;100.00
17054;BME280;8643;48.824;11.422;2023-12-20T10:53:41;97022.91;;;3.37;100.00
17054;BME280;8643;48.824;11.422;2023-12-20T10:56:17;97004.66;;;3.18;100.00
17054;BME280;8643;48.824;11.422;2023-12-20T10:58:46;97002.22;;;3.17;100.00
17054;BME280;8643;48.824;11.422;2023-12-20T11:01:18;96999.28;;;3.13;100.00
17054;BME280;8643;48.824;11.422;2023-12-20T11:03:50;96995.41;;;3.24;100.00
17054;BME280;8643;48.824;11.422;2023-12-20T11:06:29;96990.09;;;3.09;100.00
17054;BME280;8643;48.824;11.422;2023-12-20T11:09:12;96982.88;;;2.99;100.00
17054;BME280;8643;48.824;11.422;2023-12-20T11:12:01;96995.84;;;3.02;100.00
17054;BME280;8643;48.824;11.422;2023-12-20T11:14:43;96977.66;;;3.08;100.00
17054;BME280;8643;48.824;11.422;2023-12-20T11:17:15;96978.38;;;3.19;100.00
17054;BME280;8643;48.824;11.422;2023-12-20T11:20:09;96981.88;;;3.24;100.00
17054;BME280;8643;48.824;11.422;2023-12-20T11:22:53;96980.16;;;3.34;100.00
17054;BME280;8643;48.824;11.422;2023-12-20T11:25:24;96980.66;;;3.41;100.00
17054;BME280;8643;48.824;11.422;2023-12-20T11:28:10;96981.44;;;3.41;100.00
17054;BME280;8643;48.824;11.422;2023-12-20T11:30:46;96984.91;;;3.47;100.00
17054;BME280;8643;48.824;11.422;2023-12-20T11:33:16;96978.38;;;3.53;100.00
17054;BME280;8643;48.824;11.422;2023-12-20T11:35:46;96975.31;;;3.60;100.00
17054;BME280;8643;48.824;11.422;2023-12-20T11:38:14;96984.72;;;3.67;100.00
17054;BME280;8643;48.824;11.422;2023-12-20T11:40:43;96984.66;;;3.73;100.00
17054;BME280;8643;48.824;11.422;2023-12-20T11:43:12;96983.47;;;3.84;100.00
17054;BME280;8643;48.824;11.422;2023-12-20T11:46:03;96977.66;;;3.96;100.00
17054;BME280;8643;48.824;11.422;2023-12-20T11:48:36;96988.22;;;3.97;100.00
17054;BME280;8643;48.824;11.422;2023-12-20T11:51:09;96972.78;;;3.98;100.00
17054;BME280;8643;48.824;11.422;2023-12-20T11:53:38;96961.66;;;3.99;100.00
17054;BME280;8643;48.824;11.422;2023-12-20T11:56:08;96956.81;;;3.96;100.00
17054;BME280;8643;48.824;11.422;2023-12-20T11:58:37;96954.44;;;3.90;100.00
17054;BME280;8643;48.824;11.422;2023-12-20T12:01:06;96939.69;;;3.77;100.00
17054;BME280;8643;48.824;11.422;2023-12-20T12:03:37;96943.59;;;3.65;100.00
17054;BME280;8643;48.824;11.422;2023-12-20T12:06:06;96942.75;;;3.70;100.00
17054;BME280;8643;48.824;11.422;2023-12-20T12:08:36;96948.16;;;3.70;100.00
17054;BME280;8643;48.824;11.422;2023-12-20T12:11:05;96929.19;;;3.70;100.00
17054;BME280;8643;48.824;11.422;2023-12-20T12:13:34;96939.69;;;3.77;100.00
17054;BME280;8643;48.824;11.422;2023-12-20T12:16:03;96947.50;;;4.02;100.00
17054;BME280;8643;48.824;11.422;2023-12-20T12:18:33;96952.81;;;4.13;100.00
17054;BME280;8643;48.824;11.422;2023-12-20T12:21:04;96945.03;;;4.06;100.00
17054;BME280;8643;48.824;11.422;2023-12-20T12:23:41;96948.03;;;4.29;100.00
17054;BME280;8643;48.824;11.422;2023-12-20T12:26:10;96963.50;;;4.47;100.00
17054;BME280;8643;48.824;11.422;2023-12-20T12:28:40;96958.00;;;6.03;100.00
17054;BME280;8643;48.824;11.422;2023-12-20T12:31:14;96954.91;;;7.10;100.00
17054;BME280;8643;48.824;11.422;2023-12-20T12:33:44;96949.97;;;6.12;100.00
17054;BME280;8643;48.824;11.422;2023-12-20T12:36:16;96946.50;;;5.31;100.00
17054;BME280;8643;48.824;11.422;2023-12-20T12:38:45;96950.69;;;5.57;100.00
17054;BME280;8643;48.824;11.422;2023-12-20T12:41:14;96955.44;;;5.65;100.00
17054;BME280;8643;48.824;11.422;2023-12-20T12:43:43;96956.00;;;6.09;100.00
17054;BME280;8643;48.824;11.422;2023-12-20T12:46:12;96948.16;;;5.60;100.00
17054;BME280;8643;48.824;11.422;2023-12-20T12:48:40;96945.69;;;5.31;100.00
17054;BME280;8643;48.824;11.422;2023-12-20T12:51:13;96932.59;;;5.80;100.00
17054;BME280;8643;48.824;11.422;2023-12-20T12:53:42;96935.56;;;5.37;100.00
17054;BME280;8643;48.824;11.422;2023-12-20T12:56:15;96938.59;;;5.49;100.00
17054;BME280;8643;48.824;11.422;2023-12-20T12:58:44;96943.28;;;5.29;100.00
17054;BME280;8643;48.824;11.422;2023-12-20T13:01:13;96944.28;;;6.64;100.00
17054;BME280;8643;48.824;11.422;2023-12-20T13:03:41;96947.00;;;6.50;100.00
17054;BME280;8643;48.824;11.422;2023-12-20T13:06:10;96940.06;;;6.43;100.00
17054;BME280;8643;48.824;11.422;2023-12-20T13:08:39;96941.50;;;6.27;100.00
17054;BME280;8643;48.824;11.422;2023-12-20T13:11:08;96936.25;;;6.45;100.00
17054;BME280;8643;48.824;11.422;2023-12-20T13:13:37;96928.88;;;5.76;100.00